sensor_id;sensor_type;location;lat;lon;timestamp;P1;durP1;ratioP1;P2;durP2;ratioP2
53618;SDS011;39505;53.040;18.488;2022-12-10T00:00:00;76.93;;;35.38;;
53618;SDS011;39505;53.040;18.488;2022-12-10T00:00:14;77.53;;;35.25;;
53618;SDS011;39505;53.040;18.488;2022-12-10T00:00:47;76.68;;;34.20;;
53618;SDS011;39505;53.040;18.488;2022-12-10T00:01:03;75.50;;;34.67;;
53618;SDS011;39505;53.040;18.488;2022-12-10T00:01:17;76.82;;;34.67;;
53618;SDS011;39505;53.040;18.488;2022-12-10T00:01:32;77.30;;;33.95;;
53618;SDS011;39505;53.040;18.488;2022-12-10T00:01:46;75.53;;;33.90;;
53618;SDS011;39505;53.040;18.488;2022-12-10T00:01:59;77.00;;;34.67;;
53618;SDS011;39505;53.040;18.488;2022-12-10T00:02:12;77.05;;;34.28;;
53618;SDS011;39505;53.040;18.488;2022-12-10T00:02:25;75.47;;;34.15;;
53618;SDS011;39505;53.040;18.488;2022-12-10T00:02:38;73.00;;;34.20;;
53618;SDS011;39505;53.040;18.488;2022-12-10T00:02:50;71.80;;;34.58;;
53618;SDS011;39505;53.040;18.488;2022-12-10T00:03:04;74.05;;;35.13;;
53618;SDS011;39505;53.040;18.488;2022-12-10T00:03:18;73.80;;;34.65;;
53618;SDS011;39505;53.040;18.488;2022-12-10T00:03:30;73.75;;;33.50;;
53618;SDS011;39505;53.040;18.488;2022-12-10T00:03:43;73.65;;;33.78;;
53618;SDS011;39505;53.040;18.488;2022-12-10T00:03:57;72.70;;;34.65;;
53618;SDS011;39505;53.040;18.488;2022-12-10T00:04:10;70.60;;;34.35;;
53618;SDS011;39505;53.040;18.488;2022-12-10T00:04:23;72.75;;;34.10;;
53618;SDS011;39505;53.040;18.488;2022-12-10T00:04:37;74.65;;;34.35;;
53618;SDS011;39505;53.040;18.488;2022-12-10T00:04:50;74.72;;;34.15;;
53618;SDS011;39505;53.040;18.488;2022-12-10T00:05:03;73.85;;;34.20;;
53618;SDS011;39505;53.040;18.488;2022-12-10T00:05:16;72.03;;;33.53;;
53618;SDS011;39505;53.040;18.488;2022-12-10T00:05:29;71.03;;;32.90;;
53618;SDS011;39505;53.040;18.488;2022-12-10T00:05:41;71.70;;;33.42;;
53618;SDS011;39505;53.040;18.488;2022-12-10T00:05:58;71.70;;;34.17;;
53618;SDS011;39505;53.040;18.488;2022-12-10T00:06:15;72.18;;;34.33;;
53618;SDS011;39505;53.040;18.488;2022-12-10T00:06:30;69.57;;;33.25;;
53618;SDS011;39505;53.040;18.488;2022-12-10T00:06:45;71.72;;;33.60;;
53618;SDS011;39505;53.040;18.488;2022-12-10T00:06:58;71.53;;;34.13;;
53618;SDS011;39505;53.040;18.488;2022-12-10T00:07:11;72.95;;;34.03;;
53618;SDS011;39505;53.040;18.488;2022-12-10T00:07:24;73.78;;;34.28;;
53618;SDS011;39505;53.040;18.488;2022-12-10T00:07:37;73.80;;;33.97;;
53618;SDS011;39505;53.040;18.488;2022-12-10T00:07:49;75.50;;;34.35;;
53618;SDS011;39505;53.040;18.488;2022-12-10T00:08:02;73.03;;;33.33;;
53618;SDS011;39505;53.040;18.488;2022-12-10T00:08:15;72.80;;;33.88;;
53618;SDS011;39505;53.040;18.488;2022-12-10T00:08:27;72.82;;;34.15;;
53618;SDS011;39505;53.040;18.488;2022-12-10T00:08:40;70.95;;;33.70;;
53618;SDS011;39505;53.040;18.488;2022-12-10T00:08:54;69.85;;;32.58;;
53618;SDS011;39505;53.040;18.488;2022-12-10T00:09:12;71.68;;;32.85;;
53618;SDS011;39505;53.040;18.488;2022-12-10T00:09:27;71.75;;;33.65;;
53618;SDS011;39505;53.040;18.488;2022-12-10T00:09:39;72.60;;;33.42;;
53618;SDS011;39505;53.040;18.488;2022-12-10T00:09:52;72.03;;;33.45;;
53618;SDS011;39505;53.040;18.488;2022-12-10T00:10:06;72.65;;;32.90;;
53618;SDS011;39505;53.040;18.488;2022-12-10T00:10:22;72.55;;;32.60;;
53618;SDS011;39505;53.040;18.488;2022-12-10T00:10:38;72.75;;;33.30;;
53618;SDS011;39505;53.040;18.488;2022-12-10T00:10:51;72.95;;;33.85;;
53618;SDS011;39505;53.040;18.488;2022-12-10T00:11:04;70.22;;;32.67;;
53618;SDS011;39505;53.040;18.488;2022-12-10T00:11:19;68.97;;;32.20;;
53618;SDS011;39505;53.040;18.488;2022-12-10T00:11:33;69.22;;;32.85;;
53618;SDS011;39505;53.040;18.488;2022-12-10T00:11:46;68.18;;;32.40;;
53618;SDS011;39505;53.040;18.488;2022-12-10T00:11:59;67.30;;;32.50;;
53618;SDS011;39505;53.040;18.488;2022-12-10T00:12:11;68.57;;;33.03;;
53618;SDS011;39505;53.040;18.488;2022-12-10T00:12:24;69.70;;;32.90;;
53618;SDS011;39505;53.040;18.488;2022-12-10T00:12:37;71.22;;;32.97;;
53618;SDS011;39505;53.040;18.488;2022-12-10T00:12:49;70.95;;;33.22;;
53618;SDS011;39505;53.040;18.488;2022-12-10T00:13:02;68.82;;;33.25;;
53618;SDS011;39505;53.040;18.488;2022-12-10T00:13:15;66.50;;;32.55;;
53618;SDS011;39505;53.040;18.488;2022-12-10T00:13:28;71.32;;;33.05;;
53618;SDS011;39505;53.040;18.488;2022-12-10T00:13:42;74.70;;;33.50;;
53618;SDS011;39505;53.040;18.488;2022-12-10T00:13:55;68.50;;;32.60;;
53618;SDS011;39505;53.040;18.488;2022-12-10T00:14:09;67.57;;;32.38;;
53618;SDS011;39505;53.040;18.488;2022-12-10T00:14:22;68.45;;;31.83;;
53618;SDS011;39505;53.040;18.488;2022-12-10T00:14:36;67.88;;;31.98;;
53618;SDS011;39505;53.040;18.488;2022-12-10T00:14:49;66.95;;;32.58;;
53618;SDS011;39505;53.040;18.488;2022-12-10T00:15:02;65.85;;;32.55;;
53618;SDS011;39505;53.040;18.488;2022-12-10T00:15:15;66.35;;;32.53;;
53618;SDS011;39505;53.040;18.488;2022-12-10T00:15:28;67.63;;;32.70;;
53618;SDS011;39505;53.040;18.488;2022-12-10T00:15:41;69.40;;;32.60;;
53618;SDS011;39505;53.040;18.488;2022-12-10T00:15:53;70.03;;;32.75;;
53618;SDS011;39505;53.040;18.488;2022-12-10T00:16:07;68.10;;;32.95;;
53618;SDS011;39505;53.040;18.488;2022-12-10T00:16:23;69.35;;;33.05;;
53618;SDS011;39505;53.040;18.488;2022-12-10T00:16:37;69.97;;;33.05;;
53618;SDS011;39505;53.040;18.488;2022-12-10T00:16:50;69.10;;;32.45;;
53618;SDS011;39505;53.040;18.488;2022-12-10T00:17:03;70.85;;;32.13;;
53618;SDS011;39505;53.040;18.488;2022-12-10T00:17:23;72.10;;;32.92;;
53618;SDS011;39505;53.040;18.488;2022-12-10T00:17:37;71.57;;;33.22;;
53618;SDS011;39505;53.040;18.488;2022-12-10T00:17:49;69.97;;;32.78;;
53618;SDS011;39505;53.040;18.488;2022-12-10T00:18:02;70.93;;;33.53;;
53618;SDS011;39505;53.040;18.488;2022-12-10T00:18:15;69.80;;;33.65;;
53618;SDS011;39505;53.040;18.488;2022-12-10T00:18:28;70.35;;;33.60;;
53618;SDS011;39505;53.040;18.488;2022-12-10T00:18:41;70.45;;;33.40;;
53618;SDS011;39505;53.040;18.488;2022-12-10T00:18:54;72.45;;;33.65;;
53618;SDS011;39505;53.040;18.488;2022-12-10T00:19:07;71.05;;;33.63;;
53618;SDS011;39505;53.040;18.488;2022-12-10T00:19:20;69.65;;;33.22;;
53618;SDS011;39505;53.040;18.488;2022-12-10T00:19:33;70.00;;;32.22;;
53618;SDS011;39505;53.040;18.488;2022-12-10T00:19:45;70.13;;;32.65;;
53618;SDS011;39505;53.040;18.488;2022-12-10T00:19:58;69.47;;;32.83;;
53618;SDS011;39505;53.040;18.488;2022-12-10T00:20:11;70.53;;;33.40;;
53618;SDS011;39505;53.040;18.488;2022-12-10T00:20:23;71.18;;;33.45;;
53618;SDS011;39505;53.040;18.488;2022-12-10T00:20:36;70.13;;;32.92;;
53618;SDS011;39505;53.040;18.488;2022-12-10T00:20:51;70.25;;;32.72;;
53618;SDS011;39505;53.040;18.488;2022-12-10T00:21:05;70.13;;;33.10;;
53618;SDS011;39505;53.040;18.488;2022-12-10T00:21:20;73.63;;;33.38;;
53618;SDS011;39505;53.040;18.488;2022-12-10T00:21:35;71.12;;;32.82;;
53618;SDS011;39505;53.040;18.488;2022-12-10T00:21:48;66.85;;;32.63;;
53618;SDS011;39505;53.040;18.488;2022-12-10T00:22:01;66.38;;;32.38;;
53618;SDS011;39505;53.040;18.488;2022-12-10T00:22:14;66.78;;;32.60;;
53618;SDS011;39505;53.040;18.488;2022-12-10T00:22:27;70.82;;;33.05;;
53618;SDS011;39505;53.040;18.488;2022-12-10T00:22:40;70.22;;;33.00;;
53618;SDS011;39505;53.040;18.488;2022-12-10T00:22:52;68.82;;;32.28;;
53618;SDS011;39505;53.040;18.488;2022-12-10T00:23:05;68.18;;;31.70;;
53618;SDS011;39505;53.040;18.488;2022-12-10T00:23:17;69.13;;;32.05;;
53618;SDS011;39505;53.040;18.488;2022-12-10T00:23:34;68.30;;;31.55;;
53618;SDS011;39505;53.040;18.488;2022-12-10T00:23:48;67.25;;;32.03;;
53618;SDS011;39505;53.040;18.488;2022-12-10T00:24:01;68.88;;;32.97;;
53618;SDS011;39505;53.040;18.488;2022-12-10T00:24:15;68.90;;;33.30;;
53618;SDS011;39505;53.040;18.488;2022-12-10T00:24:27;69.15;;;33.10;;
53618;SDS011;39505;53.040;18.488;2022-12-10T00:24:41;68.38;;;32.60;;
53618;SDS011;39505;53.040;18.488;2022-12-10T00:24:53;70.40;;;33.13;;
53618;SDS011;39505;53.040;18.488;2022-12-10T00:25:06;71.22;;;33.60;;
53618;SDS011;39505;53.040;18.488;2022-12-10T00:25:19;73.03;;;33.88;;
53618;SDS011;39505;53.040;18.488;2022-12-10T00:25:32;72.70;;;33.80;;
53618;SDS011;39505;53.040;18.488;2022-12-10T00:25:45;71.38;;;33.50;;
53618;SDS011;39505;53.040;18.488;2022-12-10T00:26:01;71.38;;;33.65;;
53618;SDS011;39505;53.040;18.488;2022-12-10T00:26:15;71.63;;;33.78;;
53618;SDS011;39505;53.040;18.488;2022-12-10T00:26:31;71.97;;;33.92;;
53618;SDS011;39505;53.040;18.488;2022-12-10T00:26:45;69.10;;;33.25;;
53618;SDS011;39505;53.040;18.488;2022-12-10T00:26:58;67.28;;;33.03;;
53618;SDS011;39505;53.040;18.488;2022-12-10T00:27:10;71.57;;;34.08;;
53618;SDS011;39505;53.040;18.488;2022-12-10T00:27:23;74.22;;;34.75;;
53618;SDS011;39505;53.040;18.488;2022-12-10T00:27:36;72.47;;;34.03;;
53618;SDS011;39505;53.040;18.488;2022-12-10T00:27:48;70.68;;;33.47;;
53618;SDS011;39505;53.040;18.488;2022-12-10T00:28:02;69.75;;;34.05;;
53618;SDS011;39505;53.040;18.488;2022-12-10T00:28:15;70.55;;;34.72;;
53618;SDS011;39505;53.040;18.488;2022-12-10T00:28:27;71.25;;;33.35;;
53618;SDS011;39505;53.040;18.488;2022-12-10T00:28:41;71.95;;;33.08;;
53618;SDS011;39505;53.040;18.488;2022-12-10T00:28:55;73.22;;;33.88;;
53618;SDS011;39505;53.040;18.488;2022-12-10T00:29:09;72.90;;;34.10;;
53618;SDS011;39505;53.040;18.488;2022-12-10T00:29:24;71.63;;;33.80;;
53618;SDS011;39505;53.040;18.488;2022-12-10T00:29:37;72.82;;;34.08;;
53618;SDS011;39505;53.040;18.488;2022-12-10T00:29:49;73.10;;;34.00;;
53618;SDS011;39505;53.040;18.488;2022-12-10T00:30:02;72.25;;;33.92;;
53618;SDS011;39505;53.040;18.488;2022-12-10T00:30:15;71.78;;;33.63;;
53618;SDS011;39505;53.040;18.488;2022-12-10T00:30:28;69.63;;;32.83;;
53618;SDS011;39505;53.040;18.488;2022-12-10T00:30:40;68.28;;;32.92;;
53618;SDS011;39505;53.040;18.488;2022-12-10T00:30:53;68.93;;;33.90;;
53618;SDS011;39505;53.040;18.488;2022-12-10T00:31:07;70.93;;;34.05;;
53618;SDS011;39505;53.040;18.488;2022-12-10T00:31:23;71.65;;;33.67;;
53618;SDS011;39505;53.040;18.488;2022-12-10T00:31:37;71.65;;;33.42;;
53618;SDS011;39505;53.040;18.488;2022-12-10T00:31:49;70.90;;;33.72;;
53618;SDS011;39505;53.040;18.488;2022-12-10T00:32:02;69.30;;;33.55;;
53618;SDS011;39505;53.040;18.488;2022-12-10T00:32:17;67.80;;;33.15;;
53618;SDS011;39505;53.040;18.488;2022-12-10T00:32:31;69.53;;;33.75;;
53618;SDS011;39505;53.040;18.488;2022-12-10T00:32:43;71.88;;;34.17;;
53618;SDS011;39505;53.040;18.488;2022-12-10T00:32:56;72.85;;;34.35;;
53618;SDS011;39505;53.040;18.488;2022-12-10T00:33:09;72.20;;;34.28;;
53618;SDS011;39505;53.040;18.488;2022-12-10T00:33:21;72.28;;;34.15;;
53618;SDS011;39505;53.040;18.488;2022-12-10T00:33:34;74.95;;;34.03;;
53618;SDS011;39505;53.040;18.488;2022-12-10T00:33:47;76.28;;;34.35;;
53618;SDS011;39505;53.040;18.488;2022-12-10T00:34:01;74.68;;;34.70;;
53618;SDS011;39505;53.040;18.488;2022-12-10T00:34:17;73.18;;;34.83;;
53618;SDS011;39505;53.040;18.488;2022-12-10T00:34:29;72.15;;;34.72;;
53618;SDS011;39505;53.040;18.488;2022-12-10T00:34:42;73.07;;;34.63;;
53618;SDS011;39505;53.040;18.488;2022-12-10T00:34:55;73.68;;;34.28;;
53618;SDS011;39505;53.040;18.488;2022-12-10T00:35:08;75.95;;;34.50;;
53618;SDS011;39505;53.040;18.488;2022-12-10T00:35:20;73.93;;;34.97;;
53618;SDS011;39505;53.040;18.488;2022-12-10T00:35:34;75.95;;;35.25;;
53618;SDS011;39505;53.040;18.488;2022-12-10T00:35:48;78.97;;;34.95;;
53618;SDS011;39505;53.040;18.488;2022-12-10T00:36:02;77.97;;;35.13;;
53618;SDS011;39505;53.040;18.488;2022-12-10T00:36:17;75.80;;;34.83;;
53618;SDS011;39505;53.040;18.488;2022-12-10T00:36:32;75.22;;;34.72;;
53618;SDS011;39505;53.040;18.488;2022-12-10T00:36:47;74.32;;;34.85;;
53618;SDS011;39505;53.040;18.488;2022-12-10T00:37:01;73.03;;;34.47;;
53618;SDS011;39505;53.040;18.488;2022-12-10T00:37:14;74.53;;;34.55;;
53618;SDS011;39505;53.040;18.488;2022-12-10T00:37:26;73.53;;;35.33;;
53618;SDS011;39505;53.040;18.488;2022-12-10T00:37:39;71.82;;;35.00;;
53618;SDS011;39505;53.040;18.488;2022-12-10T00:37:52;73.85;;;35.22;;
53618;SDS011;39505;53.040;18.488;2022-12-10T00:38:04;78.13;;;36.00;;
53618;SDS011;39505;53.040;18.488;2022-12-10T00:38:17;78.95;;;36.22;;
53618;SDS011;39505;53.040;18.488;2022-12-10T00:38:29;77.80;;;35.28;;
53618;SDS011;39505;53.040;18.488;2022-12-10T00:38:43;76.47;;;34.83;;
53618;SDS011;39505;53.040;18.488;2022-12-10T00:38:57;74.38;;;34.95;;
53618;SDS011;39505;53.040;18.488;2022-12-10T00:39:10;74.63;;;35.22;;
53618;SDS011;39505;53.040;18.488;2022-12-10T00:39:24;75.13;;;35.10;;
53618;SDS011;39505;53.040;18.488;2022-12-10T00:39:36;78.50;;;35.38;;
53618;SDS011;39505;53.040;18.488;2022-12-10T00:39:51;80.15;;;35.83;;
53618;SDS011;39505;53.040;18.488;2022-12-10T00:40:04;78.72;;;35.70;;
53618;SDS011;39505;53.040;18.488;2022-12-10T00:40:18;78.03;;;35.15;;
53618;SDS011;39505;53.040;18.488;2022-12-10T00:40:32;79.20;;;35.25;;
53618;SDS011;39505;53.040;18.488;2022-12-10T00:40:45;76.22;;;34.88;;
53618;SDS011;39505;53.040;18.488;2022-12-10T00:40:58;75.80;;;35.40;;
53618;SDS011;39505;53.040;18.488;2022-12-10T00:41:10;80.45;;;36.13;;
53618;SDS011;39505;53.040;18.488;2022-12-10T00:41:24;80.00;;;36.20;;
53618;SDS011;39505;53.040;18.488;2022-12-10T00:41:36;76.07;;;36.08;;
53618;SDS011;39505;53.040;18.488;2022-12-10T00:41:50;74.95;;;36.17;;
53618;SDS011;39505;53.040;18.488;2022-12-10T00:42:03;76.47;;;36.15;;
53618;SDS011;39505;53.040;18.488;2022-12-10T00:42:15;77.53;;;36.53;;
53618;SDS011;39505;53.040;18.488;2022-12-10T00:42:28;76.50;;;36.05;;
53618;SDS011;39505;53.040;18.488;2022-12-10T00:42:40;75.38;;;35.88;;
53618;SDS011;39505;53.040;18.488;2022-12-10T00:42:53;77.38;;;35.58;;
53618;SDS011;39505;53.040;18.488;2022-12-10T00:43:06;81.22;;;36.13;;
53618;SDS011;39505;53.040;18.488;2022-12-10T00:43:19;81.28;;;36.08;;
53618;SDS011;39505;53.040;18.488;2022-12-10T00:43:32;80.85;;;35.92;;
53618;SDS011;39505;53.040;18.488;2022-12-10T00:43:46;76.78;;;35.35;;
53618;SDS011;39505;53.040;18.488;2022-12-10T00:43:59;78.35;;;35.88;;
53618;SDS011;39505;53.040;18.488;2022-12-10T00:44:12;78.57;;;36.05;;
53618;SDS011;39505;53.040;18.488;2022-12-10T00:44:26;75.32;;;35.50;;
53618;SDS011;39505;53.040;18.488;2022-12-10T00:44:39;76.57;;;35.10;;
53618;SDS011;39505;53.040;18.488;2022-12-10T00:44:52;76.63;;;35.08;;
53618;SDS011;39505;53.040;18.488;2022-12-10T00:45:05;77.40;;;35.50;;
53618;SDS011;39505;53.040;18.488;2022-12-10T00:45:18;78.40;;;35.90;;
53618;SDS011;39505;53.040;18.488;2022-12-10T00:45:31;76.70;;;35.95;;
53618;SDS011;39505;53.040;18.488;2022-12-10T00:45:43;76.07;;;36.08;;
53618;SDS011;39505;53.040;18.488;2022-12-10T00:45:56;78.30;;;36.53;;
53618;SDS011;39505;53.040;18.488;2022-12-10T00:46:09;81.90;;;36.55;;
53618;SDS011;39505;53.040;18.488;2022-12-10T00:46:22;80.90;;;35.85;;
53618;SDS011;39505;53.040;18.488;2022-12-10T00:46:36;75.93;;;34.67;;
53618;SDS011;39505;53.040;18.488;2022-12-10T00:46:49;74.97;;;34.20;;
53618;SDS011;39505;53.040;18.488;2022-12-10T00:47:02;74.10;;;34.67;;
53618;SDS011;39505;53.040;18.488;2022-12-10T00:47:14;76.88;;;35.80;;
53618;SDS011;39505;53.040;18.488;2022-12-10T00:47:27;78.28;;;36.25;;
53618;SDS011;39505;53.040;18.488;2022-12-10T00:47:40;78.75;;;36.50;;
53618;SDS011;39505;53.040;18.488;2022-12-10T00:47:52;78.85;;;36.38;;
53618;SDS011;39505;53.040;18.488;2022-12-10T00:48:06;76.10;;;35.85;;
53618;SDS011;39505;53.040;18.488;2022-12-10T00:48:19;75.00;;;35.30;;
53618;SDS011;39505;53.040;18.488;2022-12-10T00:48:32;75.85;;;34.58;;
53618;SDS011;39505;53.040;18.488;2022-12-10T00:48:45;77.47;;;35.03;;
53618;SDS011;39505;53.040;18.488;2022-12-10T00:48:58;80.25;;;36.30;;
53618;SDS011;39505;53.040;18.488;2022-12-10T00:49:11;78.80;;;36.28;;
53618;SDS011;39505;53.040;18.488;2022-12-10T00:49:25;77.95;;;37.03;;
53618;SDS011;39505;53.040;18.488;2022-12-10T00:49:37;79.32;;;37.10;;
53618;SDS011;39505;53.040;18.488;2022-12-10T00:49:50;77.88;;;36.63;;
53618;SDS011;39505;53.040;18.488;2022-12-10T00:50:03;76.30;;;36.28;;
53618;SDS011;39505;53.040;18.488;2022-12-10T00:50:16;78.88;;;36.17;;
53618;SDS011;39505;53.040;18.488;2022-12-10T00:50:29;79.88;;;35.83;;
53618;SDS011;39505;53.040;18.488;2022-12-10T00:50:42;78.85;;;35.40;;
53618;SDS011;39505;53.040;18.488;2022-12-10T00:50:56;77.05;;;35.63;;
53618;SDS011;39505;53.040;18.488;2022-12-10T00:51:11;76.60;;;36.55;;
53618;SDS011;39505;53.040;18.488;2022-12-10T00:51:26;76.38;;;36.78;;
53618;SDS011;39505;53.040;18.488;2022-12-10T00:51:39;78.60;;;37.03;;
53618;SDS011;39505;53.040;18.488;2022-12-10T00:51:52;79.93;;;37.20;;
53618;SDS011;39505;53.040;18.488;2022-12-10T00:52:06;77.38;;;36.72;;
53618;SDS011;39505;53.040;18.488;2022-12-10T00:52:19;77.18;;;36.42;;
53618;SDS011;39505;53.040;18.488;2022-12-10T00:52:32;77.43;;;36.22;;
53618;SDS011;39505;53.040;18.488;2022-12-10T00:52:44;79.68;;;36.40;;
53618;SDS011;39505;53.040;18.488;2022-12-10T00:52:57;79.24;;;36.28;;
53618;SDS011;39505;53.040;18.488;2022-12-10T00:53:10;78.43;;;36.25;;
53618;SDS011;39505;53.040;18.488;2022-12-10T00:53:23;82.57;;;36.95;;
53618;SDS011;39505;53.040;18.488;2022-12-10T00:53:38;81.45;;;37.15;;
53618;SDS011;39505;53.040;18.488;2022-12-10T00:53:52;77.40;;;36.25;;
53618;SDS011;39505;53.040;18.488;2022-12-10T00:54:06;74.78;;;35.45;;
53618;SDS011;39505;53.040;18.488;2022-12-10T00:54:19;75.82;;;35.53;;
53618;SDS011;39505;53.040;18.488;2022-12-10T00:54:32;76.22;;;35.67;;
53618;SDS011;39505;53.040;18.488;2022-12-10T00:54:45;74.97;;;35.55;;
53618;SDS011;39505;53.040;18.488;2022-12-10T00:54:58;74.22;;;35.20;;
53618;SDS011;39505;53.040;18.488;2022-12-10T00:55:11;76.00;;;35.20;;
53618;SDS011;39505;53.040;18.488;2022-12-10T00:55:23;76.20;;;35.53;;
53618;SDS011;39505;53.040;18.488;2022-12-10T00:55:36;77.70;;;36.40;;
53618;SDS011;39505;53.040;18.488;2022-12-10T00:55:49;78.47;;;36.83;;
53618;SDS011;39505;53.040;18.488;2022-12-10T00:56:01;79.05;;;37.25;;
53618;SDS011;39505;53.040;18.488;2022-12-10T00:56:16;78.43;;;37.33;;
53618;SDS011;39505;53.040;18.488;2022-12-10T00:56:31;79.25;;;36.95;;
53618;SDS011;39505;53.040;18.488;2022-12-10T00:56:45;78.18;;;36.50;;
53618;SDS011;39505;53.040;18.488;2022-12-10T00:56:59;80.13;;;36.17;;
53618;SDS011;39505;53.040;18.488;2022-12-10T00:57:11;81.53;;;36.13;;
53618;SDS011;39505;53.040;18.488;2022-12-10T00:57:24;79.53;;;36.25;;
53618;SDS011;39505;53.040;18.488;2022-12-10T00:57:37;77.43;;;36.40;;
53618;SDS011;39505;53.040;18.488;2022-12-10T00:57:50;78.75;;;35.92;;
53618;SDS011;39505;53.040;18.488;2022-12-10T00:58:03;78.50;;;35.90;;
53618;SDS011;39505;53.040;18.488;2022-12-10T00:58:15;78.30;;;36.45;;
53618;SDS011;39505;53.040;18.488;2022-12-10T00:58:28;79.18;;;36.88;;
53618;SDS011;39505;53.040;18.488;2022-12-10T00:58:42;77.88;;;36.70;;
53618;SDS011;39505;53.040;18.488;2022-12-10T00:58:57;78.70;;;36.78;;
53618;SDS011;39505;53.040;18.488;2022-12-10T00:59:12;80.05;;;37.45;;
53618;SDS011;39505;53.040;18.488;2022-12-10T00:59:25;79.30;;;37.33;;
53618;SDS011;39505;53.040;18.488;2022-12-10T00:59:37;80.80;;;37.65;;
53618;SDS011;39505;53.040;18.488;2022-12-10T00:59:50;80.57;;;37.55;;
53618;SDS011;39505;53.040;18.488;2022-12-10T01:00:03;79.07;;;37.33;;
53618;SDS011;39505;53.040;18.488;2022-12-10T01:00:17;81.38;;;37.67;;
53618;SDS011;39505;53.040;18.488;2022-12-10T01:00:29;82.38;;;37.38;;
53618;SDS011;39505;53.040;18.488;2022-12-10T01:00:42;81.90;;;37.28;;
53618;SDS011;39505;53.040;18.488;2022-12-10T01:01:05;81.55;;;37.00;;
53618;SDS011;39505;53.040;18.488;2022-12-10T01:01:20;80.80;;;36.67;;
53618;SDS011;39505;53.040;18.488;2022-12-10T01:01:36;79.93;;;36.95;;
53618;SDS011;39505;53.040;18.488;2022-12-10T01:01:49;83.10;;;37.90;;
53618;SDS011;39505;53.040;18.488;2022-12-10T01:02:03;85.20;;;37.70;;
53618;SDS011;39505;53.040;18.488;2022-12-10T01:02:16;85.95;;;37.45;;
53618;SDS011;39505;53.040;18.488;2022-12-10T01:02:29;83.93;;;37.45;;
53618;SDS011;39505;53.040;18.488;2022-12-10T01:02:41;80.95;;;37.70;;
53618;SDS011;39505;53.040;18.488;2022-12-10T01:02:54;79.88;;;37.17;;
53618;SDS011;39505;53.040;18.488;2022-12-10T01:03:07;79.38;;;36.92;;
53618;SDS011;39505;53.040;18.488;2022-12-10T01:03:19;81.82;;;37.28;;
53618;SDS011;39505;53.040;18.488;2022-12-10T01:03:32;77.68;;;37.10;;
53618;SDS011;39505;53.040;18.488;2022-12-10T01:03:45;78.63;;;37.50;;
53618;SDS011;39505;53.040;18.488;2022-12-10T01:04:00;83.38;;;38.20;;
53618;SDS011;39505;53.040;18.488;2022-12-10T01:04:16;84.97;;;38.53;;
53618;SDS011;39505;53.040;18.488;2022-12-10T01:04:29;83.97;;;37.97;;
53618;SDS011;39505;53.040;18.488;2022-12-10T01:04:42;84.07;;;38.15;;
53618;SDS011;39505;53.040;18.488;2022-12-10T01:04:54;85.10;;;38.40;;
53618;SDS011;39505;53.040;18.488;2022-12-10T01:05:07;85.43;;;38.03;;
53618;SDS011;39505;53.040;18.488;2022-12-10T01:05:20;82.55;;;37.55;;
53618;SDS011;39505;53.040;18.488;2022-12-10T01:05:34;79.45;;;37.42;;
53618;SDS011;39505;53.040;18.488;2022-12-10T01:05:46;79.28;;;37.20;;
53618;SDS011;39505;53.040;18.488;2022-12-10T01:06:06;80.13;;;37.30;;
53618;SDS011;39505;53.040;18.488;2022-12-10T01:06:21;81.75;;;37.88;;
53618;SDS011;39505;53.040;18.488;2022-12-10T01:06:36;82.30;;;38.00;;
53618;SDS011;39505;53.040;18.488;2022-12-10T01:06:53;80.10;;;37.00;;
53618;SDS011;39505;53.040;18.488;2022-12-10T01:07:06;80.97;;;36.60;;
53618;SDS011;39505;53.040;18.488;2022-12-10T01:07:22;82.05;;;37.63;;
53618;SDS011;39505;53.040;18.488;2022-12-10T01:07:35;83.50;;;38.25;;
53618;SDS011;39505;53.040;18.488;2022-12-10T01:07:47;81.43;;;37.72;;
53618;SDS011;39505;53.040;18.488;2022-12-10T01:08:04;80.78;;;36.78;;
53618;SDS011;39505;53.040;18.488;2022-12-10T01:08:17;81.68;;;36.53;;
53618;SDS011;39505;53.040;18.488;2022-12-10T01:08:30;80.38;;;37.03;;
53618;SDS011;39505;53.040;18.488;2022-12-10T01:08:43;82.00;;;37.95;;
53618;SDS011;39505;53.040;18.488;2022-12-10T01:08:59;80.07;;;37.30;;
53618;SDS011;39505;53.040;18.488;2022-12-10T01:09:15;79.18;;;37.33;;
53618;SDS011;39505;53.040;18.488;2022-12-10T01:09:30;83.93;;;38.00;;
53618;SDS011;39505;53.040;18.488;2022-12-10T01:09:44;83.95;;;38.38;;
53618;SDS011;39505;53.040;18.488;2022-12-10T01:09:56;80.43;;;37.67;;
53618;SDS011;39505;53.040;18.488;2022-12-10T01:10:09;81.47;;;37.50;;
53618;SDS011;39505;53.040;18.488;2022-12-10T01:10:22;82.88;;;37.70;;
53618;SDS011;39505;53.040;18.488;2022-12-10T01:10:34;81.93;;;37.28;;
53618;SDS011;39505;53.040;18.488;2022-12-10T01:10:52;80.82;;;37.20;;
53618;SDS011;39505;53.040;18.488;2022-12-10T01:11:05;81.80;;;37.25;;
53618;SDS011;39505;53.040;18.488;2022-12-10T01:11:18;79.18;;;36.92;;
53618;SDS011;39505;53.040;18.488;2022-12-10T01:11:35;77.55;;;36.42;;
53618;SDS011;39505;53.040;18.488;2022-12-10T01:11:52;82.38;;;37.03;;
53618;SDS011;39505;53.040;18.488;2022-12-10T01:12:06;84.78;;;37.60;;
53618;SDS011;39505;53.040;18.488;2022-12-10T01:12:18;85.90;;;38.42;;
53618;SDS011;39505;53.040;18.488;2022-12-10T01:12:31;85.70;;;38.30;;
53618;SDS011;39505;53.040;18.488;2022-12-10T01:12:43;82.43;;;37.60;;
53618;SDS011;39505;53.040;18.488;2022-12-10T01:12:57;81.05;;;37.20;;
53618;SDS011;39505;53.040;18.488;2022-12-10T01:13:10;81.40;;;37.20;;
53618;SDS011;39505;53.040;18.488;2022-12-10T01:13:23;80.43;;;37.25;;
53618;SDS011;39505;53.040;18.488;2022-12-10T01:13:35;82.90;;;37.78;;
53618;SDS011;39505;53.040;18.488;2022-12-10T01:13:48;82.07;;;37.63;;
53618;SDS011;39505;53.040;18.488;2022-12-10T01:14:02;82.60;;;37.67;;
53618;SDS011;39505;53.040;18.488;2022-12-10T01:14:19;79.05;;;37.08;;
53618;SDS011;39505;53.040;18.488;2022-12-10T01:14:33;77.30;;;36.70;;
53618;SDS011;39505;53.040;18.488;2022-12-10T01:14:46;77.28;;;36.42;;
53618;SDS011;39505;53.040;18.488;2022-12-10T01:14:58;78.82;;;36.85;;
53618;SDS011;39505;53.040;18.488;2022-12-10T01:15:11;81.28;;;37.80;;
53618;SDS011;39505;53.040;18.488;2022-12-10T01:15:23;81.88;;;37.75;;
53618;SDS011;39505;53.040;18.488;2022-12-10T01:15:37;82.45;;;37.13;;
53618;SDS011;39505;53.040;18.488;2022-12-10T01:15:51;81.45;;;36.70;;
53618;SDS011;39505;53.040;18.488;2022-12-10T01:16:06;79.63;;;36.45;;
53618;SDS011;39505;53.040;18.488;2022-12-10T01:16:20;79.70;;;36.80;;
53618;SDS011;39505;53.040;18.488;2022-12-10T01:16:34;79.97;;;37.33;;
53618;SDS011;39505;53.040;18.488;2022-12-10T01:16:48;78.57;;;37.05;;
53618;SDS011;39505;53.040;18.488;2022-12-10T01:17:01;77.18;;;36.38;;
53618;SDS011;39505;53.040;18.488;2022-12-10T01:17:16;78.96;;;37.02;;
53618;SDS011;39505;53.040;18.488;2022-12-10T01:17:29;80.15;;;37.53;;
53618;SDS011;39505;53.040;18.488;2022-12-10T01:17:41;81.03;;;37.28;;
53618;SDS011;39505;53.040;18.488;2022-12-10T01:17:54;79.60;;;37.03;;